sensor_id;sensor_type;location;lat;lon;timestamp;pressure;altitude;pressure_sealevel;temperature;humidity
55934;BME280;41839;41.386;2.082;2023-03-13T00:00:18;99958.47;;;20.83;56.41
55934;BME280;41839;41.386;2.082;2023-03-13T00:02:43;99976.03;;;21.12;57.66
55934;BME280;41839;41.386;2.082;2023-03-13T00:05:12;99977.72;;;20.99;52.46
55934;BME280;41839;41.386;2.082;2023-03-13T00:07:38;99973.13;;;20.58;53.66
55934;BME280;41839;41.386;2.082;2023-03-13T00:10:05;99967.03;;;20.58;53.54
55934;BME280;41839;41.386;2.082;2023-03-13T00:12:31;99964.41;;;20.59;53.57
55934;BME280;41839;41.386;2.082;2023-03-13T00:14:57;99971.44;;;20.63;52.77
55934;BME280;41839;41.386;2.082;2023-03-13T00:17:22;99968.81;;;20.63;53.20
55934;BME280;41839;41.386;2.082;2023-03-13T00:19:49;99973.31;;;20.84;57.47
55934;BME280;41839;41.386;2.082;2023-03-13T00:22:14;99971.63;;;21.02;53.75
55934;BME280;41839;41.386;2.082;2023-03-13T00:24:40;99967.28;;;21.01;57.18
55934;BME280;41839;41.386;2.082;2023-03-13T00:27:05;99967.31;;;21.08;52.40
55934;BME280;41839;41.386;2.082;2023-03-13T00:29:32;99969.06;;;21.06;54.72
55934;BME280;41839;41.386;2.082;2023-03-13T00:31:58;99959.44;;;21.08;51.55
55934;BME280;41839;41.386;2.082;2023-03-13T00:34:24;99966.44;;;21.08;54.47
55934;BME280;41839;41.386;2.082;2023-03-13T00:36:53;99933.13;;;20.71;53.17
55934;BME280;41839;41.386;2.082;2023-03-13T00:39:20;99968.88;;;20.74;51.33
55934;BME280;41839;41.386;2.082;2023-03-13T00:41:46;99969.78;;;20.79;51.99
55934;BME280;41839;41.386;2.082;2023-03-13T00:44:12;99965.44;;;20.83;52.37
55934;BME280;41839;41.386;2.082;2023-03-13T00:46:37;99961.84;;;20.68;51.67
55934;BME280;41839;41.386;2.082;2023-03-13T00:49:03;99947.78;;;20.49;51.95
55934;BME280;41839;41.386;2.082;2023-03-13T00:51:29;99971.44;;;20.68;56.05
55934;BME280;41839;41.386;2.082;2023-03-13T00:53:56;99971.50;;;20.80;54.09
55934;BME280;41839;41.386;2.082;2023-03-13T00:56:25;99968.88;;;20.74;52.69
55934;BME280;41839;41.386;2.082;2023-03-13T00:58:51;99948.63;;;20.47;53.45
55934;BME280;41839;41.386;2.082;2023-03-13T01:03:53;99965.41;;;20.72;57.93
55934;BME280;41839;41.386;2.082;2023-03-13T01:06:22;99974.19;;;20.85;58.43
55934;BME280;41839;41.386;2.082;2023-03-13T01:08:48;99972.47;;;20.94;57.92
55934;BME280;41839;41.386;2.082;2023-03-13T01:11:20;99963.81;;;21.05;57.80
55934;BME280;41839;41.386;2.082;2023-03-13T01:13:46;99967.31;;;21.10;54.38
55934;BME280;41839;41.386;2.082;2023-03-13T01:16:17;99973.34;;;21.00;57.01
55934;BME280;41839;41.386;2.082;2023-03-13T01:18:45;99957.66;;;20.98;56.94
55934;BME280;41839;41.386;2.082;2023-03-13T01:21:12;99963.84;;;21.14;56.83
55934;BME280;41839;41.386;2.082;2023-03-13T01:23:38;99964.53;;;20.78;52.55
55934;BME280;41839;41.386;2.082;2023-03-13T01:26:05;99966.19;;;20.62;55.47
55934;BME280;41839;41.386;2.082;2023-03-13T01:28:34;99965.03;;;20.23;55.34
55934;BME280;41839;41.386;2.082;2023-03-13T01:31:00;99953.44;;;19.92;56.83
55934;BME280;41839;41.386;2.082;2023-03-13T01:33:26;99957.00;;;20.03;57.71
55934;BME280;41839;41.386;2.082;2023-03-13T01:35:51;99957.97;;;20.16;55.71
55934;BME280;41839;41.386;2.082;2023-03-13T01:38:17;99943.63;;;19.69;55.64
55934;BME280;41839;41.386;2.082;2023-03-13T01:40:45;99939.19;;;19.62;60.58
55934;BME280;41839;41.386;2.082;2023-03-13T01:43:21;99931.63;;;19.87;58.18
55934;BME280;41839;41.386;2.082;2023-03-13T01:48:36;99947.72;;;19.47;56.14
55934;BME280;41839;41.386;2.082;2023-03-13T01:51:07;99930.94;;;19.22;55.91
55934;BME280;41839;41.386;2.082;2023-03-13T01:53:34;99915.25;;;19.18;57.97
55934;BME280;41839;41.386;2.082;2023-03-13T01:56:05;99903.84;;;19.09;59.08
55934;BME280;41839;41.386;2.082;2023-03-13T01:58:32;99926.19;;;18.89;58.20
55934;BME280;41839;41.386;2.082;2023-03-13T02:00:58;99893.63;;;18.61;58.99
55934;BME280;41839;41.386;2.082;2023-03-13T02:03:25;99906.66;;;18.61;58.99
55934;BME280;41839;41.386;2.082;2023-03-13T02:05:52;99905.00;;;18.64;59.94
55934;BME280;41839;41.386;2.082;2023-03-13T02:08:20;99904.44;;;18.87;61.29
55934;BME280;41839;41.386;2.082;2023-03-13T02:10:55;99903.09;;;18.54;59.37
55934;BME280;41839;41.386;2.082;2023-03-13T02:13:24;99892.69;;;18.53;60.65
55934;BME280;41839;41.386;2.082;2023-03-13T02:15:50;99888.53;;;18.69;60.85
55934;BME280;41839;41.386;2.082;2023-03-13T02:18:16;99879.88;;;18.70;59.94
55934;BME280;41839;41.386;2.082;2023-03-13T02:20:42;99845.75;;;18.51;61.58
55934;BME280;41839;41.386;2.082;2023-03-13T02:23:30;99865.41;;;18.92;59.79
55934;BME280;41839;41.386;2.082;2023-03-13T02:25:57;99879.53;;;19.12;60.61
55934;BME280;41839;41.386;2.082;2023-03-13T02:28:34;99874.22;;;19.03;59.78
55934;BME280;41839;41.386;2.082;2023-03-13T02:31:03;99845.41;;;18.91;60.61
55934;BME280;41839;41.386;2.082;2023-03-13T02:33:31;99850.56;;;18.84;59.60
55934;BME280;41839;41.386;2.082;2023-03-13T02:36:00;99863.53;;;18.81;61.31
55934;BME280;41839;41.386;2.082;2023-03-13T02:38:29;99842.63;;;18.75;61.25
55934;BME280;41839;41.386;2.082;2023-03-13T02:40:56;99873.25;;;18.93;62.33
55934;BME280;41839;41.386;2.082;2023-03-13T02:43:32;99860.16;;;18.88;61.90
55934;BME280;41839;41.386;2.082;2023-03-13T02:48:35;99860.59;;;18.55;62.88
55934;BME280;41839;41.386;2.082;2023-03-13T02:51:04;99835.53;;;18.65;63.88
55934;BME280;41839;41.386;2.082;2023-03-13T02:53:31;99818.88;;;18.54;62.43
55934;BME280;41839;41.386;2.082;2023-03-13T02:55:57;99845.31;;;18.81;64.26
55934;BME280;41839;41.386;2.082;2023-03-13T02:58:23;99853.31;;;18.97;63.15
55934;BME280;41839;41.386;2.082;2023-03-13T03:00:50;99853.41;;;19.06;63.01
55934;BME280;41839;41.386;2.082;2023-03-13T03:03:16;99842.00;;;18.98;61.69
55934;BME280;41839;41.386;2.082;2023-03-13T03:05:41;99838.47;;;18.89;62.64
55934;BME280;41839;41.386;2.082;2023-03-13T03:08:07;99821.72;;;18.72;62.33
55934;BME280;41839;41.386;2.082;2023-03-13T03:10:35;99825.44;;;18.89;62.90
55934;BME280;41839;41.386;2.082;2023-03-13T03:13:01;99827.06;;;18.81;62.21
55934;BME280;41839;41.386;2.082;2023-03-13T03:15:26;99820.84;;;18.72;62.76
55934;BME280;41839;41.386;2.082;2023-03-13T03:17:52;99808.66;;;18.69;63.12
55934;BME280;41839;41.386;2.082;2023-03-13T03:20:17;99812.94;;;18.65;62.81
55934;BME280;41839;41.386;2.082;2023-03-13T03:22:43;99792.25;;;18.75;65.75
55934;BME280;41839;41.386;2.082;2023-03-13T03:25:08;99814.09;;;18.89;63.17
55934;BME280;41839;41.386;2.082;2023-03-13T03:27:34;99783.88;;;19.06;61.58
55934;BME280;41839;41.386;2.082;2023-03-13T03:30:01;99796.81;;;18.97;63.24
55934;BME280;41839;41.386;2.082;2023-03-13T03:32:27;99806.38;;;18.97;62.14
55934;BME280;41839;41.386;2.082;2023-03-13T03:34:52;99804.81;;;19.11;60.39
55934;BME280;41839;41.386;2.082;2023-03-13T03:37:18;99806.50;;;19.09;60.69
55934;BME280;41839;41.386;2.082;2023-03-13T03:39:43;99809.19;;;19.15;59.34
55934;BME280;41839;41.386;2.082;2023-03-13T03:42:08;99806.66;;;19.24;60.08
55934;BME280;41839;41.386;2.082;2023-03-13T03:44:34;99802.50;;;19.46;62.98
55934;BME280;41839;41.386;2.082;2023-03-13T03:46:59;99800.06;;;19.66;57.41
55934;BME280;41839;41.386;2.082;2023-03-13T03:49:25;99801.09;;;19.82;56.70
55934;BME280;41839;41.386;2.082;2023-03-13T03:51:50;99794.06;;;19.78;57.76
55934;BME280;41839;41.386;2.082;2023-03-13T03:54:16;99779.28;;;19.74;59.04
55934;BME280;41839;41.386;2.082;2023-03-13T03:56:41;99792.44;;;19.89;55.53
55934;BME280;41839;41.386;2.082;2023-03-13T03:59:07;99795.03;;;19.94;56.43
55934;BME280;41839;41.386;2.082;2023-03-13T04:01:32;99791.66;;;20.07;58.26
55934;BME280;41839;41.386;2.082;2023-03-13T04:03:58;99769.88;;;20.03;54.12
55934;BME280;41839;41.386;2.082;2023-03-13T04:06:23;99795.16;;;20.09;57.64
55934;BME280;41839;41.386;2.082;2023-03-13T04:08:49;99795.25;;;20.23;54.52
55934;BME280;41839;41.386;2.082;2023-03-13T04:11:14;99789.97;;;20.18;59.87
55934;BME280;41839;41.386;2.082;2023-03-13T04:13:39;99767.38;;;20.25;55.22
55934;BME280;41839;41.386;2.082;2023-03-13T04:16:08;99785.56;;;20.10;58.31
55934;BME280;41839;41.386;2.082;2023-03-13T04:18:34;99782.94;;;20.05;56.50
55934;BME280;41839;41.386;2.082;2023-03-13T04:21:01;99775.88;;;19.90;56.32
55934;BME280;41839;41.386;2.082;2023-03-13T04:23:27;99778.41;;;19.75;58.50
55934;BME280;41839;41.386;2.082;2023-03-13T04:25:52;99775.66;;;19.61;56.02
55934;BME280;41839;41.386;2.082;2023-03-13T04:28:18;99773.25;;;19.83;58.29
55934;BME280;41839;41.386;2.082;2023-03-13T04:30:43;99774.97;;;19.84;53.97
55934;BME280;41839;41.386;2.082;2023-03-13T04:33:09;99739.31;;;19.84;60.63
55934;BME280;41839;41.386;2.082;2023-03-13T04:35:34;99777.81;;;20.20;60.01
55934;BME280;41839;41.386;2.082;2023-03-13T04:38:00;99772.47;;;19.99;53.72
55934;BME280;41839;41.386;2.082;2023-03-13T04:40:27;99755.72;;;19.66;54.57
55934;BME280;41839;41.386;2.082;2023-03-13T04:42:52;99781.66;;;19.51;60.65
55934;BME280;41839;41.386;2.082;2023-03-13T04:45:17;99760.06;;;19.64;58.20
55934;BME280;41839;41.386;2.082;2023-03-13T04:47:45;99775.59;;;19.52;55.21
55934;BME280;41839;41.386;2.082;2023-03-13T04:50:10;99772.03;;;19.42;55.12
55934;BME280;41839;41.386;2.082;2023-03-13T04:52:36;99775.34;;;19.21;56.65
55934;BME280;41839;41.386;2.082;2023-03-13T04:55:01;99755.84;;;18.82;56.82
55934;BME280;41839;41.386;2.082;2023-03-13T04:57:27;99770.66;;;18.86;56.56
55934;BME280;41839;41.386;2.082;2023-03-13T04:59:52;99763.59;;;18.76;56.51
55934;BME280;41839;41.386;2.082;2023-03-13T05:02:18;99748.81;;;18.75;56.72
55934;BME280;41839;41.386;2.082;2023-03-13T05:04:43;99764.56;;;18.83;56.34
55934;BME280;41839;41.386;2.082;2023-03-13T05:07:08;99762.97;;;18.99;56.05
55934;BME280;41839;41.386;2.082;2023-03-13T05:09:34;99750.75;;;18.95;55.69
55934;BME280;41839;41.386;2.082;2023-03-13T05:11:59;99776.19;;;19.19;60.49
55934;BME280;41839;41.386;2.082;2023-03-13T05:14:25;99775.63;;;19.55;61.22
55934;BME280;41839;41.386;2.082;2023-03-13T05:16:50;99734.72;;;19.54;59.17
55934;BME280;41839;41.386;2.082;2023-03-13T05:19:16;99764.59;;;19.93;60.37
55934;BME280;41839;41.386;2.082;2023-03-13T05:21:41;99765.59;;;20.16;59.44
55934;BME280;41839;41.386;2.082;2023-03-13T05:24:07;99756.06;;;20.24;59.20
55934;BME280;41839;41.386;2.082;2023-03-13T05:26:32;99762.19;;;20.34;57.98
55934;BME280;41839;41.386;2.082;2023-03-13T05:28:58;99775.31;;;20.49;58.02
55934;BME280;41839;41.386;2.082;2023-03-13T05:31:23;99769.28;;;20.55;57.72
55934;BME280;41839;41.386;2.082;2023-03-13T05:33:49;99767.47;;;20.49;57.49
55934;BME280;41839;41.386;2.082;2023-03-13T05:36:14;99770.16;;;20.62;56.88
55934;BME280;41839;41.386;2.082;2023-03-13T05:38:40;99770.22;;;20.72;56.57
55934;BME280;41839;41.386;2.082;2023-03-13T05:41:05;99764.94;;;20.60;54.83
55934;BME280;41839;41.386;2.082;2023-03-13T05:43:31;99767.47;;;20.42;53.60
55934;BME280;41839;41.386;2.082;2023-03-13T05:45:56;99763.91;;;20.31;57.20
55934;BME280;41839;41.386;2.082;2023-03-13T05:48:22;99755.28;;;20.41;58.41
55934;BME280;41839;41.386;2.082;2023-03-13T05:50:47;99745.69;;;20.43;56.33
55934;BME280;41839;41.386;2.082;2023-03-13T05:53:13;99744.78;;;20.39;53.17
55934;BME280;41839;41.386;2.082;2023-03-13T05:55:38;99753.50;;;20.40;57.70
55934;BME280;41839;41.386;2.082;2023-03-13T05:58:03;99751.78;;;20.43;56.30
55934;BME280;41839;41.386;2.082;2023-03-13T06:00:29;99745.75;;;20.52;57.73
55934;BME280;41839;41.386;2.082;2023-03-13T06:02:55;99756.19;;;20.52;57.77
55934;BME280;41839;41.386;2.082;2023-03-13T06:05:20;99742.28;;;20.55;57.43
55934;BME280;41839;41.386;2.082;2023-03-13T06:07:48;99749.25;;;20.54;57.74
55934;BME280;41839;41.386;2.082;2023-03-13T06:10:14;99771.06;;;20.70;57.33
55934;BME280;41839;41.386;2.082;2023-03-13T06:12:40;99768.47;;;20.79;55.18
55934;BME280;41839;41.386;2.082;2023-03-13T06:15:06;99771.97;;;20.81;56.57
55934;BME280;41839;41.386;2.082;2023-03-13T06:17:31;99773.72;;;20.82;56.72
55934;BME280;41839;41.386;2.082;2023-03-13T06:19:57;99740.56;;;20.66;56.56
55934;BME280;41839;41.386;2.082;2023-03-13T06:22:22;99731.84;;;20.61;55.83
55934;BME280;41839;41.386;2.082;2023-03-13T06:24:48;99757.13;;;20.77;56.76
55934;BME280;41839;41.386;2.082;2023-03-13T06:27:14;99746.66;;;20.71;56.50
55934;BME280;41839;41.386;2.082;2023-03-13T06:29:40;99774.59;;;20.83;57.04
55934;BME280;41839;41.386;2.082;2023-03-13T06:32:05;99764.09;;;20.77;54.41
55934;BME280;41839;41.386;2.082;2023-03-13T06:34:31;99764.09;;;20.70;56.17
55934;BME280;41839;41.386;2.082;2023-03-13T06:36:56;99761.50;;;20.75;56.19
55934;BME280;41839;41.386;2.082;2023-03-13T06:39:23;99758.03;;;20.85;56.69
55934;BME280;41839;41.386;2.082;2023-03-13T06:41:48;99736.22;;;20.69;55.55
55934;BME280;41839;41.386;2.082;2023-03-13T06:44:14;99744.09;;;20.86;56.52
55934;BME280;41839;41.386;2.082;2023-03-13T06:46:39;99752.81;;;20.82;53.07
55934;BME280;41839;41.386;2.082;2023-03-13T06:49:05;99758.88;;;20.70;55.19
55934;BME280;41839;41.386;2.082;2023-03-13T06:51:30;99753.63;;;20.63;57.67
55934;BME280;41839;41.386;2.082;2023-03-13T06:53:56;99727.38;;;20.43;55.22
55934;BME280;41839;41.386;2.082;2023-03-13T06:56:22;99745.78;;;20.66;59.19
55934;BME280;41839;41.386;2.082;2023-03-13T06:58:48;99744.88;;;20.59;57.73
55934;BME280;41839;41.386;2.082;2023-03-13T07:01:15;99747.50;;;20.55;55.16
55934;BME280;41839;41.386;2.082;2023-03-13T07:03:42;99756.19;;;20.55;55.72
55934;BME280;41839;41.386;2.082;2023-03-13T07:06:09;99756.16;;;20.50;54.70
55934;BME280;41839;41.386;2.082;2023-03-13T07:08:35;99766.59;;;20.46;57.71
55934;BME280;41839;41.386;2.082;2023-03-13T07:11:03;99757.84;;;20.35;55.14
55934;BME280;41839;41.386;2.082;2023-03-13T07:13:29;99766.56;;;20.40;56.12
55934;BME280;41839;41.386;2.082;2023-03-13T07:15:55;99779.72;;;20.55;59.55
55934;BME280;41839;41.386;2.082;2023-03-13T07:18:23;99777.16;;;20.60;58.69
55934;BME280;41839;41.386;2.082;2023-03-13T07:20:53;99771.09;;;20.76;56.98
55934;BME280;41839;41.386;2.082;2023-03-13T07:23:19;99756.19;;;20.52;54.22
55934;BME280;41839;41.386;2.082;2023-03-13T07:25:54;99753.56;;;20.52;56.22
55934;BME280;41839;41.386;2.082;2023-03-13T07:28:21;99780.63;;;20.62;53.51
55934;BME280;41839;41.386;2.082;2023-03-13T07:30:47;99758.81;;;20.52;56.75
55934;BME280;41839;41.386;2.082;2023-03-13T07:33:13;99758.84;;;20.67;58.26
55934;BME280;41839;41.386;2.082;2023-03-13T07:35:39;99771.91;;;20.64;53.23
55934;BME280;41839;41.386;2.082;2023-03-13T07:38:04;99770.13;;;20.56;53.58
55934;BME280;41839;41.386;2.082;2023-03-13T07:40:30;99764.94;;;20.57;54.06
55934;BME280;41839;41.386;2.082;2023-03-13T07:42:55;99775.38;;;20.59;57.57
55934;BME280;41839;41.386;2.082;2023-03-13T07:45:20;99758.03;;;20.79;58.13
55934;BME280;41839;41.386;2.082;2023-03-13T07:47:46;99758.06;;;21.05;58.03
55934;BME280;41839;41.386;2.082;2023-03-13T07:50:11;99749.38;;;21.35;57.40
55934;BME280;41839;41.386;2.082;2023-03-13T07:52:37;99748.50;;;21.56;54.94
55934;BME280;41839;41.386;2.082;2023-03-13T07:55:02;99751.97;;;21.49;51.11
55934;BME280;41839;41.386;2.082;2023-03-13T07:57:28;99754.63;;;21.37;56.74
55934;BME280;41839;41.386;2.082;2023-03-13T07:59:53;99754.59;;;21.58;56.64
55934;BME280;41839;41.386;2.082;2023-03-13T08:02:19;99745.00;;;21.70;56.16
55934;BME280;41839;41.386;2.082;2023-03-13T08:04:44;99748.47;;;21.79;55.36
55934;BME280;41839;41.386;2.082;2023-03-13T08:07:10;99754.56;;;21.91;55.24
55934;BME280;41839;41.386;2.082;2023-03-13T08:09:36;99749.31;;;21.87;52.63
55934;BME280;41839;41.386;2.082;2023-03-13T08:12:02;99737.97;;;21.92;53.39
55934;BME280;41839;41.386;2.082;2023-03-13T08:14:28;99751.91;;;21.95;54.14
55934;BME280;41839;41.386;2.082;2023-03-13T08:16:53;99745.00;;;21.83;53.51
55934;BME280;41839;41.386;2.082;2023-03-13T08:19:19;99761.56;;;21.84;53.45
55934;BME280;41839;41.386;2.082;2023-03-13T08:21:44;99752.84;;;21.80;52.87
55934;BME280;41839;41.386;2.082;2023-03-13T08:24:10;99747.59;;;21.79;52.71
55934;BME280;41839;41.386;2.082;2023-03-13T08:26:40;99745.88;;;21.62;50.02
55934;BME280;41839;41.386;2.082;2023-03-13T08:29:08;99755.41;;;20.90;51.63
55934;BME280;41839;41.386;2.082;2023-03-13T08:31:45;99750.94;;;20.50;52.80
55934;BME280;41839;41.386;2.082;2023-03-13T08:34:12;99745.75;;;20.55;52.74
55934;BME280;41839;41.386;2.082;2023-03-13T08:36:37;99747.34;;;20.27;53.67
55934;BME280;41839;41.386;2.082;2023-03-13T08:39:06;99748.16;;;20.08;53.79
55934;BME280;41839;41.386;2.082;2023-03-13T08:41:33;99745.53;;;20.08;54.38
55934;BME280;41839;41.386;2.082;2023-03-13T08:44:01;99748.22;;;20.27;54.05
55934;BME280;41839;41.386;2.082;2023-03-13T08:46:29;99736.81;;;20.04;53.60
55934;BME280;41839;41.386;2.082;2023-03-13T08:48:55;99740.34;;;20.11;53.16
55934;BME280;41839;41.386;2.082;2023-03-13T08:51:23;99749.94;;;20.16;53.31
55934;BME280;41839;41.386;2.082;2023-03-13T08:53:49;99718.53;;;20.04;53.11
55934;BME280;41839;41.386;2.082;2023-03-13T08:56:20;99740.41;;;20.26;52.90
55934;BME280;41839;41.386;2.082;2023-03-13T08:58:58;99729.00;;;20.09;53.47
55934;BME280;41839;41.386;2.082;2023-03-13T09:01:29;99743.03;;;20.29;53.47
55934;BME280;41839;41.386;2.082;2023-03-13T09:03:55;99741.22;;;20.22;54.06
55934;BME280;41839;41.386;2.082;2023-03-13T09:06:20;99737.59;;;19.91;54.90
55934;BME280;41839;41.386;2.082;2023-03-13T09:08:46;99730.41;;;19.57;56.13
55934;BME280;41839;41.386;2.082;2023-03-13T09:11:14;99719.22;;;19.75;56.25
55934;BME280;41839;41.386;2.082;2023-03-13T09:13:43;99718.47;;;19.93;55.95
55934;BME280;41839;41.386;2.082;2023-03-13T09:16:13;99718.44;;;19.86;55.99
55934;BME280;41839;41.386;2.082;2023-03-13T09:18:40;99670.41;;;19.62;56.41
55934;BME280;41839;41.386;2.082;2023-03-13T09:21:11;99721.09;;;19.93;56.94
55934;BME280;41839;41.386;2.082;2023-03-13T09:23:37;99707.13;;;19.84;57.13
55934;BME280;41839;41.386;2.082;2023-03-13T09:26:03;99708.94;;;20.01;57.52
55934;BME280;41839;41.386;2.082;2023-03-13T09:29:25;99681.91;;;19.93;58.02
55934;BME280;41839;41.386;2.082;2023-03-13T09:31:51;99699.34;;;19.96;58.82
55934;BME280;41839;41.386;2.082;2023-03-13T09:34:16;99688.13;;;20.24;58.00
55934;BME280;41839;41.386;2.082;2023-03-13T09:36:42;99673.38;;;20.34;57.37
55934;BME280;41839;41.386;2.082;2023-03-13T09:39:07;99672.63;;;20.63;57.20
55934;BME280;41839;41.386;2.082;2023-03-13T09:42:43;99696.06;;;20.49;57.61
55934;BME280;41839;41.386;2.082;2023-03-13T09:50:41;99693.56;;;21.16;56.11
55934;BME280;41839;41.386;2.082;2023-03-13T09:52:40;99691.78;;;21.55;55.29
55934;BME280;41839;41.386;2.082;2023-03-13T09:56:44;99680.41;;;21.67;55.23
55934;BME280;41839;41.386;2.082;2023-03-13T09:59:20;99669.84;;;22.05;54.73
55934;BME280;41839;41.386;2.082;2023-03-13T10:01:48;99680.31;;;22.04;54.65
55934;BME280;41839;41.386;2.082;2023-03-13T10:06:46;99674.31;;;21.67;54.79
55934;BME280;41839;41.386;2.082;2023-03-13T10:16:32;99678.97;;;22.89;51.83
55934;BME280;41839;41.386;2.082;2023-03-13T10:18:57;99640.44;;;22.97;51.34
55934;BME280;41839;41.386;2.082;2023-03-13T10:22:31;99662.94;;;23.29;51.12
55934;BME280;41839;41.386;2.082;2023-03-13T10:25:05;99662.88;;;23.35;50.58
55934;BME280;41839;41.386;2.082;2023-03-13T10:27:31;99655.53;;;23.65;49.56
55934;BME280;41839;41.386;2.082;2023-03-13T10:30:28;99660.72;;;23.76;49.34
55934;BME280;41839;41.386;2.082;2023-03-13T10:35:43;99642.13;;;23.94;48.92
55934;BME280;41839;41.386;2.082;2023-03-13T10:38:19;99640.78;;;24.27;48.57
55934;BME280;41839;41.386;2.082;2023-03-13T10:41:00;99615.16;;;24.40;47.87
55934;BME280;41839;41.386;2.082;2023-03-13T10:43:27;99617.94;;;24.32;47.93
55934;BME280;41839;41.386;2.082;2023-03-13T10:45:53;99619.16;;;24.69;47.56
55934;BME280;41839;41.386;2.082;2023-03-13T10:48:29;99602.72;;;24.56;46.96
55934;BME280;41839;41.386;2.082;2023-03-13T10:51:00;99613.44;;;24.96;46.53
55934;BME280;41839;41.386;2.082;2023-03-13T10:56:02;99593.88;;;25.11;46.21
55934;BME280;41839;41.386;2.082;2023-03-13T10:58:47;99586.75;;;25.19;45.61
55934;BME280;41839;41.386;2.082;2023-03-13T11:01:25;99599.16;;;25.13;45.79
55934;BME280;41839;41.386;2.082;2023-03-13T11:03:53;99615.75;;;25.15;46.67
55934;BME280;41839;41.386;2.082;2023-03-13T11:11:24;99598.16;;;25.65;45.67
55934;BME280;41839;41.386;2.082;2023-03-13T11:14:06;99596.25;;;25.71;44.97
55934;BME280;41839;41.386;2.082;2023-03-13T11:16:38;99581.47;;;25.64;44.62
55934;BME280;41839;41.386;2.082;2023-03-13T11:32:41;99557.56;;;25.30;45.04
55934;BME280;41839;41.386;2.082;2023-03-13T11:38:06;99531.19;;;24.32;47.50
55934;BME280;41839;41.386;2.082;2023-03-13T11:57:26;99511.53;;;23.33;51.09
55934;BME280;41839;41.386;2.082;2023-03-13T12:00:32;99517.97;;;23.02;52.00
55934;BME280;41839;41.386;2.082;2023-03-13T12:05:47;99464.16;;;22.63;52.04
55934;BME280;41839;41.386;2.082;2023-03-13T12:08:28;99501.94;;;22.42;52.90
55934;BME280;41839;41.386;2.082;2023-03-13T12:15:44;99489.75;;;22.37;53.97
55934;BME280;41839;41.386;2.082;2023-03-13T12:18:24;99473.38;;;22.04;54.42
55934;BME280;41839;41.386;2.082;2023-03-13T12:21:03;99474.19;;;22.12;54.66
55934;BME280;41839;41.386;2.082;2023-03-13T12:26:09;99435.25;;;21.61;55.98
55934;BME280;41839;41.386;2.082;2023-03-13T12:28:42;99449.00;;;21.94;55.62
55934;BME280;41839;41.386;2.082;2023-03-13T12:31:17;99449.03;;;21.88;55.96
55934;BME280;41839;41.386;2.082;2023-03-13T12:36:51;99429.63;;;22.14;55.10
55934;BME280;41839;41.386;2.082;2023-03-13T12:40:04;99426.41;;;21.84;55.77
55934;BME280;41839;41.386;2.082;2023-03-13T12:42:56;99372.69;;;21.22;57.16
55934;BME280;41839;41.386;2.082;2023-03-13T12:47:33;99404.81;;;21.45;57.80
55934;BME280;41839;41.386;2.082;2023-03-13T12:50:22;99356.97;;;21.23;57.89
55934;BME280;41839;41.386;2.082;2023-03-13T13:01:46;99349.41;;;20.51;60.73
55934;BME280;41839;41.386;2.082;2023-03-13T13:04:46;99394.66;;;20.82;60.70
55934;BME280;41839;41.386;2.082;2023-03-13T13:07:36;99353.78;;;20.52;60.41
55934;BME280;41839;41.386;2.082;2023-03-13T13:12:41;99383.38;;;20.59;61.62
55934;BME280;41839;41.386;2.082;2023-03-13T13:15:26;99388.66;;;20.19;62.70
55934;BME280;41839;41.386;2.082;2023-03-13T13:18:04;99374.72;;;20.21;62.36
55934;BME280;41839;41.386;2.082;2023-03-13T13:20:41;99366.91;;;20.23;62.52
55934;BME280;41839;41.386;2.082;2023-03-13T13:23:36;99357.31;;;20.16;63.02
55934;BME280;41839;41.386;2.082;2023-03-13T13:36:57;99301.38;;;20.90;60.53
55934;BME280;41839;41.386;2.082;2023-03-13T13:39:38;99325.78;;;20.86;61.02
55934;BME280;41839;41.386;2.082;2023-03-13T13:51:24;99273.81;;;19.96;64.10
55934;BME280;41839;41.386;2.082;2023-03-13T13:54:00;99261.63;;;19.93;64.18
55934;BME280;41839;41.386;2.082;2023-03-13T13:56:36;99258.13;;;20.08;64.06
55934;BME280;41839;41.386;2.082;2023-03-13T14:01:41;99259.06;;;19.66;64.73
55934;BME280;41839;41.386;2.082;2023-03-13T14:04:32;99246.91;;;19.35;65.26
55934;BME280;41839;41.386;2.082;2023-03-13T14:07:02;99242.53;;;19.08;66.18
55934;BME280;41839;41.386;2.082;2023-03-13T14:10:34;99231.22;;;19.19;66.19
55934;BME280;41839;41.386;2.082;2023-03-13T14:13:02;99224.28;;;19.34;65.29
55934;BME280;41839;41.386;2.082;2023-03-13T14:15:32;99248.59;;;19.38;65.81
55934;BME280;41839;41.386;2.082;2023-03-13T14:19:37;99252.06;;;19.51;64.50
55934;BME280;41839;41.386;2.082;2023-03-13T14:22:44;99243.38;;;19.23;64.61
55934;BME280;41839;41.386;2.082;2023-03-13T14:25:10;99252.94;;;19.04;65.37
55934;BME280;41839;41.386;2.082;2023-03-13T14:27:45;99213.72;;;18.53;66.50
55934;BME280;41839;41.386;2.082;2023-03-13T14:30:14;99229.44;;;18.82;66.12
55934;BME280;41839;41.386;2.082;2023-03-13T14:32:40;99232.91;;;18.86;65.57
55934;BME280;41839;41.386;2.082;2023-03-13T14:35:07;99232.91;;;18.89;65.88
55934;BME280;41839;41.386;2.082;2023-03-13T14:37:43;99232.09;;;19.11;64.80
55934;BME280;41839;41.386;2.082;2023-03-13T14:41:47;99221.69;;;19.21;64.08
55934;BME280;41839;41.386;2.082;2023-03-13T14:44:25;99219.94;;;19.27;63.58
55934;BME280;41839;41.386;2.082;2023-03-13T14:48:21;99210.34;;;18.97;64.02
55934;BME280;41839;41.386;2.082;2023-03-13T14:50:49;99206.03;;;19.13;63.77
55934;BME280;41839;41.386;2.082;2023-03-13T14:53:17;99188.63;;;19.07;63.97
55934;BME280;41839;41.386;2.082;2023-03-13T14:55:43;99198.22;;;19.05;63.51
55934;BME280;41839;41.386;2.082;2023-03-13T14:58:28;99177.34;;;19.13;63.39
55934;BME280;41839;41.386;2.082;2023-03-13T15:02:28;99182.56;;;19.16;63.56
55934;BME280;41839;41.386;2.082;2023-03-13T15:05:05;99183.41;;;19.07;63.73
55934;BME280;41839;41.386;2.082;2023-03-13T15:10:33;99169.53;;;18.98;64.06
55934;BME280;41839;41.386;2.082;2023-03-13T15:13:24;99166.06;;;19.17;63.97
55934;BME280;41839;41.386;2.082;2023-03-13T15:15:51;99145.19;;;19.00;64.13
55934;BME280;41839;41.386;2.082;2023-03-13T15:19:23;99126.06;;;18.98;63.37